メインページ
METAR-TAF:

METAR-TAF

空港 :

イエローナイフ空港

イエローナイフ, ノースウェスト準州, カナダ

緯度: 62-28N, 経度: 114-27W, 海抜: 205m

現時点の気象観測

当レポートは46分前の09:00(UTC)に作成
東/北東の風 11kt
気温 2°C
湿度 55%
気圧 1015 hPa
視程: 24.1km
高度12000ftの雲はほとんどない

METAR: CYZF 200900Z 06011KT 15SM FEW120 02/M06 A2996 RMK AC2 SLP161

時間: 03:46 (09:46 UTC)

予報

当レポートは4時間8分前の05:38(UTC)に作成
予報は20日の 06時(UTC)から 21日の 06時(UTC)まで有効
の風 10kt
視程: 10km
高度12000ftの雲はほとんどない
20日の 13時(UTC)から 20日の 15時(UTC)まで徐々に
の風 15kt、最大25ktの突風を伴う

TAF: CYZF 200538Z 2006/2106 09010KT P6SM FEW120 BECMG 2013/2015 09015G25KT RMK NXT FCST BY 201200Z

4,000以上の空港の気象観測と天気予報(METAR報とTAF報)

利用可能な観測所は地図上に黄色い丸と赤い丸で示す。

丸の上にカーソルを重ねると観測所名を参照できる。

次にクリックすると気象観測と天気予報を参照できる。

マップの切り替え:黒色「×」印の緑ボタンをクリックして拡大、「-」印の緑ボタンをクリックして縮小、緑色の三角印をクリックして隣りの地図に切り替え


METAR-TAF: